createdAt,value
2022-10-05T00:00:17.980Z,101909.47
2022-10-05T00:02:46.464Z,101900.81
2022-10-05T00:05:15.953Z,101904.31
2022-10-05T00:07:42.532Z,101910.34
2022-10-05T00:10:14.596Z,101915.50
2022-10-05T00:12:40.956Z,101905.13
2022-10-05T00:15:12.182Z,101905.13
2022-10-05T00:17:38.861Z,101909.47
2022-10-05T00:20:37.812Z,101906.88
2022-10-05T00:23:05.096Z,101895.75
2022-10-05T00:25:31.498Z,101894.00
2022-10-05T00:28:00.278Z,101897.50
2022-10-05T00:30:32.927Z,101888.00
2022-10-05T00:32:59.992Z,101886.31
2022-10-05T00:35:29.118Z,101888.97
2022-10-05T00:37:56.017Z,101877.81
2022-10-05T00:40:37.542Z,101884.63
2022-10-05T00:43:25.665Z,101886.38
2022-10-05T00:46:07.568Z,101883.84
2022-10-05T00:48:49.584Z,101873.53
2022-10-05T00:51:28.585Z,101868.41
2022-10-05T00:54:17.487Z,101872.66
2022-10-05T00:56:56.492Z,101865.03
2022-10-05T00:59:40.559Z,101874.47
2022-10-05T01:02:34.371Z,101869.38
2022-10-05T01:05:12.732Z,101866.84
2022-10-05T01:07:48.098Z,101861.69
2022-10-05T01:10:30.592Z,101860.13
2022-10-05T01:13:11.606Z,101851.66
2022-10-05T01:15:58.699Z,101851.75
2022-10-05T01:18:57.346Z,101858.75
2022-10-05T01:21:26.826Z,101850.22
2022-10-05T01:24:25.061Z,101849.38
2022-10-05T01:27:10.209Z,101844.16
2022-10-05T01:29:52.275Z,101836.44
2022-10-05T01:32:52.910Z,101826.19
2022-10-05T01:35:43.159Z,101815.97
2022-10-05T01:38:18.461Z,101813.47
2022-10-05T01:40:51.557Z,101810.13
2022-10-05T01:43:27.826Z,101809.34
2022-10-05T01:46:18.871Z,101801.69
2022-10-05T01:48:58.329Z,101806.97
2022-10-05T01:51:30.680Z,101804.38
2022-10-05T01:54:15.211Z,101797.59
2022-10-05T01:56:52.970Z,101800.22
2022-10-05T01:59:43.909Z,101783.06
2022-10-05T02:02:16.534Z,101787.41
2022-10-05T02:05:04.158Z,101778.06
2022-10-05T02:07:45.821Z,101767.81
2022-10-05T02:10:30.911Z,101767.88
2022-10-05T02:13:25.070Z,101768.00
2022-10-05T02:16:01.247Z,101760.31
2022-10-05T02:18:33.596Z,101758.63
2022-10-05T02:21:01.861Z,101767.22
2022-10-05T02:23:37.807Z,101764.59
2022-10-05T02:26:06.430Z,101768.13
2022-10-05T02:28:35.955Z,101763.84
2022-10-05T02:31:11.764Z,101757.03
2022-10-05T02:33:38.582Z,101751.97
2022-10-05T02:36:16.075Z,101741.69
2022-10-05T02:38:59.287Z,101746.06
2022-10-05T02:41:34.907Z,101759.91
2022-10-05T02:44:20.235Z,101759.91
2022-10-05T02:47:06.876Z,101753.03
2022-10-05T02:49:46.369Z,101751.34
2022-10-05T02:52:28.128Z,101734.16
2022-10-05T02:55:03.218Z,101729.06
2022-10-05T02:57:40.058Z,101723.97
2022-10-05T03:00:20.932Z,101726.53
2022-10-05T03:03:06.189Z,101746.34
2022-10-05T03:05:44.167Z,101748.06
2022-10-05T03:08:35.809Z,101730.06
2022-10-05T03:11:25.309Z,101730.06
2022-10-05T03:14:18.721Z,101733.44
2022-10-05T03:16:55.092Z,101738.56
2022-10-05T03:19:40.386Z,101736.75
2022-10-05T03:22:38.439Z,101733.28
2022-10-05T03:25:32.295Z,101738.34
2022-10-05T03:28:14.465Z,101738.31
2022-10-05T03:31:17.923Z,101730.59
2022-10-05T03:33:55.063Z,101734.78
2022-10-05T03:36:25.109Z,101745.91
2022-10-05T03:39:25.791Z,101740.69
2022-10-05T03:41:58.340Z,101741.50
2022-10-05T03:45:01.915Z,101732.88
2022-10-05T03:47:50.644Z,101731.13
2022-10-05T03:50:37.403Z,101731.97
2022-10-05T03:53:18.236Z,101730.25
2022-10-05T03:55:54.053Z,101735.41
2022-10-05T03:58:27.358Z,101736.19
2022-10-05T04:00:59.090Z,101737.88
2022-10-05T04:03:40.398Z,101737.06
2022-10-05T04:06:17.751Z,101728.41
2022-10-05T04:08:51.929Z,101727.50
2022-10-05T04:11:29.425Z,101712.03
2022-10-05T04:14:09.118Z,101714.63
2022-10-05T04:16:41.830Z,101710.41
2022-10-05T04:19:31.889Z,101718.13
2022-10-05T04:22:25.342Z,101719.00
2022-10-05T04:24:56.213Z,101710.47
2022-10-05T04:27:29.269Z,101713.91
2022-10-05T04:30:12.407Z,101703.59
2022-10-05T04:32:42.562Z,101695.88
2022-10-05T04:35:46.584Z,101701.91
2022-10-05T04:38:27.956Z,101690.72
2022-10-05T04:41:39.485Z,101692.47
2022-10-05T04:44:43.379Z,101685.63
2022-10-05T04:47:24.894Z,101684.69
2022-10-05T04:50:16.085Z,101690.72
2022-10-05T04:53:03.426Z,101688.16
2022-10-05T04:55:53.103Z,101687.31
2022-10-05T04:58:45.292Z,101683.91
2022-10-05T05:01:30.905Z,101677.88
2022-10-05T05:04:20.483Z,101681.34
2022-10-05T05:07:00.981Z,101677.94
2022-10-05T05:09:42.596Z,101672.72
2022-10-05T05:12:20.125Z,101671.03
2022-10-05T05:15:11.203Z,101670.97
2022-10-05T05:17:50.528Z,101670.97
2022-10-05T05:20:36.777Z,101665.88
2022-10-05T05:23:33.853Z,101658.13
2022-10-05T05:26:36.829Z,101659.78
2022-10-05T05:29:23.714Z,101655.56
2022-10-05T05:31:55.821Z,101658.97
2022-10-05T05:34:46.844Z,101653.00
2022-10-05T05:37:19.625Z,101656.50
2022-10-05T05:40:06.128Z,101662.59
2022-10-05T05:42:42.179Z,101668.63
2022-10-05T05:45:17.760Z,101667.78
2022-10-05T05:47:52.038Z,101664.38
2022-10-05T05:50:30.282Z,101665.19
2022-10-05T05:53:20.593Z,101661.78
2022-10-05T05:56:12.898Z,101662.69
2022-10-05T05:58:47.842Z,101664.44
2022-10-05T06:01:35.502Z,101652.44
2022-10-05T06:04:09.022Z,101658.44
2022-10-05T06:06:42.255Z,101661.88
2022-10-05T06:09:22.773Z,101655.03
2022-10-05T06:12:19.980Z,101656.72
2022-10-05T06:14:56.604Z,101661.00
2022-10-05T06:17:31.751Z,101660.06
2022-10-05T06:20:05.221Z,101666.13
2022-10-05T06:22:41.277Z,101664.38
2022-10-05T06:25:13.581Z,101665.16
2022-10-05T06:28:11.774Z,101659.91
2022-10-05T06:30:51.594Z,101671.97
2022-10-05T06:33:28.694Z,101662.47
2022-10-05T06:36:17.505Z,101658.16
2022-10-05T06:39:07.905Z,101674.38
2022-10-05T06:41:48.480Z,101663.16
2022-10-05T06:44:26.021Z,101667.38
2022-10-05T06:47:14.772Z,101672.53
2022-10-05T06:50:07.319Z,101666.53
2022-10-05T06:52:36.566Z,101664.75
2022-10-05T06:55:54.693Z,101669.91
2022-10-05T06:58:42.561Z,101672.44
2022-10-05T07:01:23.472Z,101673.22
2022-10-05T07:04:15.640Z,101674.00
2022-10-05T07:06:51.485Z,101674.81
2022-10-05T07:09:53.192Z,101666.13
2022-10-05T07:12:34.313Z,101672.03
2022-10-05T07:15:16.501Z,101662.41
2022-10-05T07:18:18.512Z,101674.31
2022-10-05T07:20:59.909Z,101667.38
2022-10-05T07:24:05.444Z,101663.84
2022-10-05T07:26:36.725Z,101664.63
2022-10-05T07:29:19.204Z,101663.78
2022-10-05T07:31:55.605Z,101668.06
2022-10-05T07:34:38.986Z,101666.31
2022-10-05T07:37:30.543Z,101671.38
2022-10-05T07:40:07.126Z,101667.94
2022-10-05T07:42:52.678Z,101676.56
2022-10-05T07:45:32.214Z,101671.38
2022-10-05T07:48:15.068Z,101679.88
2022-10-05T07:50:53.475Z,101670.44
2022-10-05T07:53:25.630Z,101663.47
2022-10-05T07:55:55.652Z,101665.09
2022-10-05T07:58:28.891Z,101664.09
2022-10-05T08:01:13.957Z,101658.94
2022-10-05T08:03:43.263Z,101658.88
2022-10-05T08:06:16.445Z,101660.50
2022-10-05T08:08:57.295Z,101664.81
2022-10-05T08:11:45.326Z,101654.44
2022-10-05T08:14:20.314Z,101656.06
2022-10-05T08:16:49.361Z,101658.72
2022-10-05T08:19:41.939Z,101657.75
2022-10-05T08:22:12.558Z,101650.78
2022-10-05T08:24:57.306Z,101655.84
2022-10-05T08:27:33.072Z,101644.53
2022-10-05T08:30:04.412Z,101649.75
2022-10-05T08:32:38.822Z,101640.13
2022-10-05T08:35:24.213Z,101639.25
2022-10-05T08:37:52.115Z,101637.47
2022-10-05T08:40:18.384Z,101640.03
2022-10-05T08:43:12.477Z,101634.88
2022-10-05T08:45:38.739Z,101640.03
2022-10-05T08:48:21.225Z,101641.59
2022-10-05T08:50:53.668Z,101644.00
2022-10-05T08:53:29.088Z,101635.22
2022-10-05T08:55:55.378Z,101627.19
2022-10-05T08:58:51.769Z,101626.25
2022-10-05T09:01:21.253Z,101627.03
2022-10-05T09:03:56.618Z,101621.81
2022-10-05T09:06:25.848Z,101631.13
2022-10-05T09:09:17.103Z,101624.91
2022-10-05T09:12:11.386Z,101633.38
2022-10-05T09:15:24.253Z,101625.47
2022-10-05T09:18:25.988Z,101619.38
2022-10-05T09:21:02.520Z,101618.09
2022-10-05T09:23:46.362Z,101611.84
2022-10-05T09:26:40.337Z,101609.09
2022-10-05T09:29:55.362Z,101609.75
2022-10-05T09:32:59.634Z,101609.44
2022-10-05T09:35:25.917Z,101602.28
2022-10-05T09:38:23.871Z,101601.97
2022-10-05T09:41:32.191Z,101592.22
2022-10-05T09:44:41.682Z,101591.81
2022-10-05T09:47:20.071Z,101591.19
2022-10-05T09:49:52.529Z,101594.25
2022-10-05T09:52:36.905Z,101588.69
2022-10-05T09:55:08.871Z,101587.66
2022-10-05T09:57:53.585Z,101579.47
2022-10-05T10:00:50.075Z,101581.66
2022-10-05T10:03:46.409Z,101574.38
2022-10-05T10:06:30.714Z,101572.41
2022-10-05T10:09:13.015Z,101569.56
2022-10-05T10:12:03.515Z,101563.25
2022-10-05T10:14:41.878Z,101567.56
2022-10-05T10:17:17.270Z,101569.88
2022-10-05T10:20:01.326Z,101560.06
2022-10-05T10:22:52.562Z,101565.16
2022-10-05T10:26:00.688Z,101566.09
2022-10-05T10:28:30.168Z,101564.97
2022-10-05T10:31:17.714Z,101566.50
2022-10-05T10:34:08.751Z,101560.78
2022-10-05T10:36:51.766Z,101557.28
2022-10-05T10:39:27.201Z,101547.66
2022-10-05T10:42:26.102Z,101552.63
2022-10-05T10:45:04.732Z,101553.19
2022-10-05T10:47:34.049Z,101559.75
2022-10-05T10:50:28.344Z,101550.22
2022-10-05T10:52:57.425Z,101550.38
2022-10-05T10:55:53.632Z,101551.81
2022-10-05T10:58:42.210Z,101543.78
2022-10-05T11:01:27.419Z,101535.84
2022-10-05T11:04:21.730Z,101543.47
2022-10-05T11:07:07.140Z,101536.69
2022-10-05T11:10:10.981Z,101537.06
2022-10-05T11:13:02.730Z,101536.13
2022-10-05T11:15:34.875Z,101536.56
2022-10-05T11:18:39.376Z,101538.16
2022-10-05T11:21:20.774Z,101532.91
2022-10-05T11:23:59.924Z,101547.38
2022-10-05T11:26:57.884Z,101540.22
2022-10-05T11:29:55.217Z,101538.38
2022-10-05T11:32:39.935Z,101529.50
2022-10-05T11:35:10.742Z,101526.06
2022-10-05T11:38:01.965Z,101521.72
2022-10-05T11:40:44.824Z,101520.50
2022-10-05T11:43:38.570Z,101515.94
2022-10-05T11:46:13.989Z,101511.44
2022-10-05T11:49:07.018Z,101503.81
2022-10-05T11:51:40.589Z,101514.16
2022-10-05T11:54:09.822Z,101508.63
2022-10-05T11:56:42.186Z,101512.91
2022-10-05T11:59:47.030Z,101496.47
2022-10-05T12:02:39.959Z,101492.16
2022-10-05T12:05:12.785Z,101498.56
2022-10-05T12:07:57.089Z,101495.53
2022-10-05T12:10:52.187Z,101489.09
2022-10-05T12:13:27.561Z,101491.47
2022-10-05T12:16:26.833Z,101483.34
2022-10-05T12:19:10.192Z,101509.53
2022-10-05T12:21:53.875Z,101481.41
2022-10-05T12:24:35.281Z,101484.53
2022-10-05T12:27:08.726Z,101475.34
2022-10-05T12:29:41.720Z,101484.16
2022-10-05T12:32:17.025Z,101482.94
2022-10-05T12:35:12.540Z,101466.94
2022-10-05T12:37:42.091Z,101463.00
2022-10-05T12:40:14.493Z,101472.19
2022-10-05T12:42:50.291Z,101453.00
2022-10-05T12:45:26.503Z,101466.03
2022-10-05T12:48:11.249Z,101458.81
2022-10-05T12:50:54.935Z,101463.84
2022-10-05T12:53:52.398Z,101464.19
2022-10-05T12:56:33.933Z,101466.88
2022-10-05T12:59:25.643Z,101464.03
2022-10-05T13:02:02.991Z,101469.13
2022-10-05T13:04:38.569Z,101462.63
2022-10-05T13:07:13.789Z,101462.88
2022-10-05T13:09:53.254Z,101463.44
2022-10-05T13:12:35.311Z,101463.13
2022-10-05T13:15:19.084Z,101463.53
2022-10-05T13:17:57.542Z,101464.22
2022-10-05T13:20:57.262Z,101452.94
2022-10-05T13:23:26.604Z,101459.03
2022-10-05T13:26:01.750Z,101461.59
2022-10-05T13:28:39.221Z,101459.25
2022-10-05T13:31:35.572Z,101457.31
2022-10-05T13:34:33.726Z,101451.88
2022-10-05T13:37:18.012Z,101460.25
2022-10-05T13:40:19.101Z,101460.91
2022-10-05T13:42:54.503Z,101457.84
2022-10-05T13:45:26.102Z,101468.91
2022-10-05T13:48:49.708Z,101463.72
2022-10-05T13:51:23.612Z,101455.09
2022-10-05T13:54:04.711Z,101452.31
2022-10-05T13:56:39.494Z,101437.28
2022-10-05T13:59:27.715Z,101461.94
2022-10-05T14:02:02.069Z,101447.00
2022-10-05T14:04:50.903Z,101454.13
2022-10-05T14:07:34.796Z,101451.56
2022-10-05T14:10:04.611Z,101456.56
2022-10-05T14:12:40.652Z,101446.94
2022-10-05T14:15:22.376Z,101445.63
2022-10-05T14:17:51.612Z,101460.28
2022-10-05T14:20:22.921Z,101447.09
2022-10-05T14:22:54.421Z,101444.59
2022-10-05T14:25:21.250Z,101458.41
2022-10-05T14:28:23.260Z,101453.31
2022-10-05T14:30:59.266Z,101453.44
2022-10-05T14:33:29.182Z,101461.34
2022-10-05T14:35:57.924Z,101455.09
2022-10-05T14:38:44.945Z,101465.47
2022-10-05T14:41:11.268Z,101476.78
2022-10-05T14:43:37.925Z,101475.09
2022-10-05T14:46:16.626Z,101481.78
2022-10-05T14:48:45.453Z,101480.00
2022-10-05T14:51:28.307Z,101481.25
2022-10-05T14:53:58.787Z,101496.53
2022-10-05T14:56:43.394Z,101490.00
2022-10-05T14:59:10.247Z,101488.16
2022-10-05T15:01:48.890Z,101495.63
2022-10-05T15:04:37.847Z,101490.75
2022-10-05T15:07:25.657Z,101478.28
2022-10-05T15:09:57.770Z,101481.25
2022-10-05T15:12:38.209Z,101503.16
2022-10-05T15:15:25.335Z,101490.09
2022-10-05T15:18:00.641Z,101486.03
2022-10-05T15:20:46.358Z,101484.84
2022-10-05T15:23:31.648Z,101482.66
2022-10-05T15:26:15.189Z,101483.72
2022-10-05T15:28:57.423Z,101480.38
2022-10-05T15:31:39.263Z,101476.34
2022-10-05T15:34:18.971Z,101480.16
2022-10-05T15:36:52.230Z,101493.41
2022-10-05T15:39:47.994Z,101479.84
2022-10-05T15:42:19.537Z,101496.38
2022-10-05T15:45:06.132Z,101488.59
2022-10-05T15:47:50.896Z,101479.13
2022-10-05T15:50:26.574Z,101490.31
2022-10-05T15:53:16.895Z,101509.41
2022-10-05T15:55:54.872Z,101487.81
2022-10-05T15:58:46.533Z,101500.84
2022-10-05T16:01:18.637Z,101493.00
2022-10-05T16:03:51.007Z,101483.78
2022-10-05T16:06:51.181Z,101492.53
2022-10-05T16:09:52.493Z,101491.78
2022-10-05T16:12:39.104Z,101495.59
2022-10-05T16:15:38.225Z,101497.56
2022-10-05T16:18:18.660Z,101502.97
2022-10-05T16:21:29.266Z,101500.66
2022-10-05T16:24:51.527Z,101512.16
2022-10-05T16:27:28.855Z,101514.06
2022-10-05T16:30:08.569Z,101531.47
2022-10-05T16:32:46.209Z,101522.19
2022-10-05T16:35:19.851Z,101530.13
2022-10-05T16:37:52.777Z,101517.28
2022-10-05T16:41:02.279Z,101525.19
2022-10-05T16:43:49.185Z,101522.81
2022-10-05T16:46:30.793Z,101524.78
2022-10-05T16:49:42.474Z,101526.59
2022-10-05T16:52:15.823Z,101536.94
2022-10-05T16:54:52.198Z,101530.16
2022-10-05T16:57:22.553Z,101529.41
2022-10-05T17:00:13.461Z,101534.72
2022-10-05T17:02:59.370Z,101536.53
2022-10-05T17:05:55.709Z,101539.16
2022-10-05T17:08:41.162Z,101538.41
2022-10-05T17:11:32.409Z,101541.00
2022-10-05T17:14:17.582Z,101541.91
2022-10-05T17:16:46.901Z,101540.28
2022-10-05T17:19:41.933Z,101543.75
2022-10-05T17:22:19.396Z,101545.50
2022-10-05T17:25:00.911Z,101555.03
2022-10-05T17:27:52.413Z,101541.25
2022-10-05T17:30:58.587Z,101546.50
2022-10-05T17:33:46.996Z,101539.69
2022-10-05T17:36:17.893Z,101552.63
2022-10-05T17:39:08.807Z,101559.56
2022-10-05T17:41:37.022Z,101570.75
2022-10-05T17:44:16.224Z,101568.22
2022-10-05T17:46:48.234Z,101571.72
2022-10-05T17:49:26.890Z,101571.72
2022-10-05T17:52:11.806Z,101581.25
2022-10-05T17:55:02.713Z,101575.19
2022-10-05T17:57:30.106Z,101582.06
2022-10-05T18:00:01.910Z,101586.41
2022-10-05T18:02:40.738Z,101594.16
2022-10-05T18:05:14.437Z,101583.81
2022-10-05T18:07:48.620Z,101587.31
2022-10-05T18:10:29.025Z,101579.47
2022-10-05T18:13:01.352Z,101581.16
2022-10-05T18:15:27.640Z,101580.25
2022-10-05T18:18:00.833Z,101587.16
2022-10-05T18:20:34.613Z,101585.44
2022-10-05T18:23:00.919Z,101584.56
2022-10-05T18:25:31.101Z,101587.16
2022-10-05T18:28:21.859Z,101581.09
2022-10-05T18:31:26.186Z,101596.53
2022-10-05T18:34:06.489Z,101593.88
2022-10-05T18:37:00.593Z,101599.91
2022-10-05T18:39:53.174Z,101593.88
2022-10-05T18:42:36.758Z,101607.75
2022-10-05T18:45:24.285Z,101607.66
2022-10-05T18:48:15.901Z,101606.72
2022-10-05T18:50:57.476Z,101619.66
2022-10-05T18:53:41.079Z,101620.41
2022-10-05T18:56:34.253Z,101629.78
2022-10-05T18:59:08.667Z,101628.00
2022-10-05T19:02:23.993Z,101622.69
2022-10-05T19:05:45.787Z,101634.72
2022-10-05T19:08:43.677Z,101639.88
2022-10-05T19:11:29.863Z,101644.91
2022-10-05T19:14:19.531Z,101658.63
2022-10-05T19:17:04.614Z,101655.09
2022-10-05T19:19:39.926Z,101654.19
2022-10-05T19:22:16.707Z,101659.41
2022-10-05T19:24:57.999Z,101659.47
2022-10-05T19:27:38.796Z,101673.28
2022-10-05T19:30:21.281Z,101674.88
2022-10-05T19:33:18.310Z,101693.00
2022-10-05T19:36:00.801Z,101682.69
2022-10-05T19:38:44.922Z,101693.03
2022-10-05T19:41:19.311Z,101693.03
2022-10-05T19:43:58.106Z,101700.75
2022-10-05T19:46:42.102Z,101740.34
2022-10-05T19:49:10.466Z,101772.50
2022-10-05T19:51:49.659Z,101789.75
2022-10-05T19:54:29.752Z,101814.22
2022-10-05T19:56:57.754Z,101808.59
2022-10-05T19:59:31.641Z,101819.47
2022-10-05T20:01:59.477Z,101821.13
2022-10-05T20:04:41.922Z,101818.97
2022-10-05T20:07:15.590Z,101822.53
2022-10-05T20:09:52.291Z,101827.00
2022-10-05T20:12:22.425Z,101833.97
2022-10-05T20:15:24.658Z,101841.78
2022-10-05T20:18:09.466Z,101845.28
2022-10-05T20:20:47.029Z,101860.72
2022-10-05T20:23:27.952Z,101868.47
2022-10-05T20:26:12.954Z,101878.63
2022-10-05T20:28:39.833Z,101877.72
2022-10-05T20:31:07.951Z,101876.72
2022-10-05T20:33:34.455Z,101888.72
2022-10-05T20:36:03.476Z,101890.47
2022-10-05T20:38:31.162Z,101888.66
2022-10-05T20:40:57.822Z,101886.97
2022-10-05T20:43:24.242Z,101900.59
2022-10-05T20:45:52.184Z,101897.19
2022-10-05T20:48:19.471Z,101903.97
2022-10-05T20:50:47.274Z,101913.34
2022-10-05T20:53:13.723Z,101921.03
2022-10-05T20:55:40.080Z,101917.50
2022-10-05T20:58:08.833Z,101930.41
2022-10-05T21:00:53.806Z,101944.16
2022-10-05T21:03:20.200Z,101938.16
2022-10-05T21:05:46.922Z,101955.34
2022-10-05T21:08:13.971Z,101979.41
2022-10-05T21:10:40.327Z,101988.78
2022-10-05T21:13:06.721Z,101998.25
2022-10-05T21:15:33.073Z,101997.44
2022-10-05T21:18:00.723Z,101989.88
2022-10-05T21:20:27.287Z,101979.84
2022-10-05T21:22:53.630Z,101973.19
2022-10-05T21:25:19.985Z,101974.22
2022-10-05T21:27:48.565Z,101980.28
2022-10-05T21:30:15.399Z,101974.31
2022-10-05T21:32:44.413Z,101986.44
2022-10-05T21:35:11.349Z,101985.59
2022-10-05T21:37:37.933Z,101982.22
2022-10-05T21:40:04.685Z,101995.94
2022-10-05T21:42:31.229Z,101990.78
2022-10-05T21:44:57.607Z,101997.63
2022-10-05T21:47:24.071Z,102004.44
2022-10-05T21:49:50.429Z,102007.94
2022-10-05T21:52:16.845Z,102010.50
2022-10-05T21:54:43.241Z,102019.94
2022-10-05T21:57:14.622Z,102020.06
2022-10-05T21:59:41.177Z,102026.97
2022-10-05T22:02:07.522Z,102033.81
2022-10-05T22:04:33.854Z,102035.63
2022-10-05T22:07:00.223Z,102045.97
2022-10-05T22:09:26.945Z,102048.66
2022-10-05T22:11:53.377Z,102052.09
2022-10-05T22:14:19.745Z,102060.69
2022-10-05T22:16:46.601Z,102063.34
2022-10-05T22:19:18.465Z,102071.06
2022-10-05T22:21:44.867Z,102069.41
2022-10-05T22:24:11.632Z,102079.72
2022-10-05T22:26:39.718Z,102090.84
2022-10-05T22:29:07.276Z,102093.50
2022-10-05T22:31:34.030Z,102092.66
2022-10-05T22:34:00.466Z,102108.09
2022-10-05T22:36:27.037Z,102108.09
2022-10-05T22:38:54.345Z,102116.72
2022-10-05T22:41:20.844Z,102119.28
2022-10-05T22:43:50.010Z,102120.16
2022-10-05T22:46:17.141Z,102130.44
2022-10-05T22:48:43.685Z,102131.31
2022-10-05T22:51:10.269Z,102136.41
2022-10-05T22:53:36.689Z,102144.16
2022-10-05T22:56:05.191Z,102141.59
2022-10-05T22:58:31.881Z,102157.88
2022-10-05T23:01:05.799Z,102157.03
2022-10-05T23:03:33.118Z,102151.00
2022-10-05T23:06:20.474Z,102163.88
2022-10-05T23:08:47.331Z,102158.75
2022-10-05T23:11:21.889Z,102169.06
2022-10-05T23:13:48.547Z,102164.84
2022-10-05T23:16:17.375Z,102174.28
2022-10-05T23:18:45.001Z,102170.00
2022-10-05T23:21:11.470Z,102180.31
2022-10-05T23:23:40.562Z,102183.78
2022-10-05T23:26:08.838Z,102192.34
2022-10-05T23:28:35.349Z,102190.63
2022-10-05T23:31:06.815Z,102188.91
2022-10-05T23:33:34.258Z,102191.47
2022-10-05T23:36:11.891Z,102202.53
2022-10-05T23:38:38.442Z,102203.38
2022-10-05T23:41:05.869Z,102214.47
2022-10-05T23:43:35.651Z,102216.19
2022-10-05T23:46:03.783Z,102220.50
2022-10-05T23:48:31.382Z,102218.75
2022-10-05T23:50:58.730Z,102225.63
2022-10-05T23:53:25.475Z,102221.38
2022-10-05T23:55:55.459Z,102236.81
2022-10-05T23:58:22.665Z,102235.13
